Time;durP1;ratioP1;P1;durP2;ratioP2;P2;SDS_P1;SDS_P2;PMS_P1;PMS_P2;Temp;Humidity;BMP_temperature;BMP_pressure;BME280_temperature;BME280_humidity;BME280_pressure;Samples;Min_cycle;Max_cycle;Signal;HPM_P1;HPM_P2
2023/03/25 00:00:56;;;;;;;27.20;2.97;;;10.00;99.90;;;;;;4994735;28;20218;-75
2023/03/25 00:03:27;;;;;;;26.30;2.83;;;9.80;99.90;;;;;;4994982;28;20238;-77
2023/03/25 00:05:53;;;;;;;26.20;2.90;;;10.60;99.90;;;;;;4995018;28;20179;-75
2023/03/25 00:08:19;;;;;;;28.27;3.70;;;9.70;99.90;;;;;;4994379;28;20202;-75
2023/03/25 00:10:50;;;;;;;19.03;2.73;;;9.80;99.90;;;;;;4994894;28;20168;-76
2023/03/25 00:13:16;;;;;;;12.53;2.43;;;10.40;99.90;;;;;;4994689;28;20191;-76
2023/03/25 00:15:45;;;;;;;15.03;2.20;;;9.80;99.90;;;;;;4995064;28;20700;-76
2023/03/25 00:18:11;;;;;;;36.17;3.53;;;9.80;99.90;;;;;;4994816;28;20686;-75
2023/03/25 00:20:39;;;;;;;24.57;2.10;;;10.00;99.90;;;;;;4995150;28;20202;-76
2023/03/25 00:23:06;;;;;;;17.00;2.43;;;9.90;99.90;;;;;;4994573;28;20195;-75
2023/03/25 00:25:32;;;;;;;9.57;2.00;;;9.90;99.90;;;;;;4994909;28;20319;-77
2023/03/25 00:27:58;;;;;;;25.77;2.33;;;9.80;99.90;;;;;;4994346;28;20309;-75
2023/03/25 00:30:24;;;;;;;19.90;2.80;;;9.90;99.90;;;;;;4993902;28;20262;-74
2023/03/25 00:32:51;;;;;;;24.20;3.10;;;10.00;99.90;;;;;;4993772;28;20273;-74
2023/03/25 00:35:18;;;;;;;26.90;2.97;;;9.90;99.90;;;;;;4976486;28;20693;-73
2023/03/25 00:37:46;;;;;;;17.63;2.80;;;9.90;99.90;;;;;;4993687;28;20190;-80
2023/03/25 00:40:12;;;;;;;25.37;3.10;;;9.90;99.90;;;;;;4993916;28;20179;-79
2023/03/25 00:42:48;;;;;;;24.37;2.83;;;;;;;;;;4993739;28;20733;-80
2023/03/25 00:45:15;;;;;;;33.67;3.53;;;9.80;99.90;;;;;;4994099;28;20186;-84
2023/03/25 00:47:41;;;;;;;21.33;3.37;;;9.60;99.90;;;;;;4994422;28;20183;-81
2023/03/25 00:50:07;;;;;;;24.00;4.03;;;9.40;99.90;;;;;;4994545;28;20175;-80
2023/03/25 00:52:32;;;;;;;29.30;3.27;;;9.40;99.90;;;;;;4993944;28;20176;-80
2023/03/25 00:54:58;;;;;;;28.97;3.80;;;9.40;99.90;;;;;;4993707;28;20547;-77
2023/03/25 00:57:24;;;;;;;32.70;4.37;;;9.30;99.90;;;;;;4994039;28;20677;-76
2023/03/25 00:59:49;;;;;;;20.50;3.30;;;9.10;99.90;;;;;;4993445;28;20179;-77
2023/03/25 01:02:17;;;;;;;27.33;3.50;;;10.40;99.90;;;;;;4992712;28;20172;-78
2023/03/25 01:04:44;;;;;;;29.00;3.60;;;9.30;99.90;;;;;;4993201;28;20681;-80
2023/03/25 01:07:11;;;;;;;31.47;4.30;;;9.40;99.90;;;;;;4993362;28;20689;-78
2023/03/25 01:09:38;;;;;;;33.07;4.43;;;9.40;99.90;;;;;;4994200;28;20187;-81
2023/03/25 01:12:03;;;;;;;23.83;2.97;;;9.40;99.90;;;;;;4994368;28;20650;-75
2023/03/25 01:14:29;;;;;;;36.87;4.53;;;9.40;99.90;;;;;;4994202;28;20233;-76
2023/03/25 01:16:57;;;;;;;24.73;3.93;;;9.40;99.90;;;;;;4992318;28;20253;-75
2023/03/25 01:19:23;;;;;;;47.87;6.20;;;9.50;99.90;;;;;;4992636;28;20262;-78
2023/03/25 01:21:48;;;;;;;40.20;3.77;;;9.30;99.90;;;;;;4993153;28;20705;-75
2023/03/25 01:24:14;;;;;;;12.73;1.80;;;9.50;99.90;;;;;;4992645;28;20207;-75
2023/03/25 01:26:42;;;;;;;14.07;2.43;;;9.40;99.90;;;;;;4993031;28;20171;-77
2023/03/25 01:29:09;;;;;;;23.93;3.63;;;9.30;99.90;;;;;;4993092;28;20163;-75
2023/03/25 01:31:35;;;;;;;31.33;4.23;;;9.40;99.90;;;;;;4980180;28;20197;-75
2023/03/25 01:34:01;;;;;;;30.17;4.30;;;9.50;99.90;;;;;;4993722;28;20183;-76
2023/03/25 01:36:29;;;;;;;22.93;3.83;;;9.60;99.90;;;;;;4991489;28;20182;-76
2023/03/25 01:38:57;;;;;;;32.10;5.03;;;9.50;99.90;;;;;;4993038;28;20182;-77
2023/03/25 01:41:27;;;;;;;27.90;3.77;;;9.70;99.90;;;;;;4992827;28;20557;-76
2023/03/25 01:44:13;;;;;;;28.60;3.87;;;10.30;99.90;;;;;;4992690;28;20346;-77
2023/03/25 01:46:44;;;;;;;25.00;4.40;;;9.60;99.90;;;;;;4989001;28;20175;-85
2023/03/25 01:49:20;;;;;;;34.40;4.40;;;9.50;99.90;;;;;;4993875;28;20187;-81
2023/03/25 01:51:49;;;;;;;16.87;3.03;;;9.60;99.90;;;;;;4992305;28;20179;-84
2023/03/25 01:54:16;;;;;;;19.37;3.17;;;9.70;99.90;;;;;;4993591;28;20188;-76
2023/03/25 01:56:46;;;;;;;15.83;3.00;;;9.70;99.90;;;;;;4992927;28;20196;-75
2023/03/25 01:59:14;;;;;;;36.30;4.67;;;9.70;99.90;;;;;;4992623;28;20179;-77
2023/03/25 02:01:40;;;;;;;20.33;3.70;;;9.70;99.90;;;;;;4992437;28;20722;-78
2023/03/25 02:04:10;;;;;;;31.90;5.10;;;;;;;;;;4992660;28;20690;-76
2023/03/25 02:06:45;;;;;;;40.53;5.23;;;9.80;99.90;;;;;;4992442;28;20254;-76
2023/03/25 02:09:15;;;;;;;34.23;4.47;;;9.80;99.90;;;;;;4992766;28;20281;-76
2023/03/25 02:11:41;;;;;;;41.10;5.20;;;9.70;99.90;;;;;;4993017;28;20175;-77
2023/03/25 02:14:14;;;;;;;41.40;5.30;;;9.80;99.90;;;;;;4993031;28;20182;-75
2023/03/25 02:16:46;;;;;;;18.70;2.13;;;9.80;99.90;;;;;;4972950;28;20180;-76
2023/03/25 02:19:31;;;;;;;24.73;3.33;;;9.80;99.90;;;;;;4973046;28;20184;-78
2023/03/25 02:22:13;;;;;;;26.23;3.73;;;9.80;99.90;;;;;;4973264;28;20180;-76
2023/03/25 02:25:07;;;;;;;24.33;3.30;;;9.80;99.90;;;;;;4956035;28;20219;-76
2023/03/25 02:27:56;;;;;;;41.07;5.10;;;9.70;99.90;;;;;;4972652;28;20661;-76
2023/03/25 02:30:43;;;;;;;30.63;4.33;;;9.70;99.90;;;;;;4972900;28;20195;-75
2023/03/25 02:33:27;;;;;;;28.93;4.83;;;9.60;99.90;;;;;;4988789;28;20534;-76
2023/03/25 02:35:59;;;;;;;34.37;5.17;;;9.60;99.90;;;;;;4982209;28;20234;-76
2023/03/25 02:38:49;;;;;;;29.97;4.30;;;9.50;99.90;;;;;;4990753;28;20710;-77
2023/03/25 02:41:35;;;;;;;28.83;4.53;;;9.50;99.90;;;;;;4992048;28;20175;-76
2023/03/25 02:44:04;;;;;;;46.33;5.23;;;9.30;99.90;;;;;;4990062;28;20218;-76
2023/03/25 02:46:31;;;;;;;33.40;3.93;;;9.50;99.90;;;;;;4989493;28;20259;-76
2023/03/25 02:49:02;;;;;;;42.37;4.97;;;9.70;99.90;;;;;;4991017;28;20306;-75
2023/03/25 02:51:31;;;;;;;31.30;4.77;;;9.80;99.90;;;;;;4990906;28;20334;-75
2023/03/25 02:54:12;;;;;;;39.87;5.20;;;9.80;99.90;;;;;;4986559;28;20179;-77
2023/03/25 02:56:40;;;;;;;39.43;5.63;;;9.80;99.90;;;;;;4991706;28;20186;-77
2023/03/25 02:59:08;;;;;;;41.00;5.37;;;10.70;99.90;;;;;;4991542;28;20250;-77
2023/03/25 03:01:35;;;;;;;38.90;4.53;;;9.90;99.90;;;;;;4990474;28;20658;-77
2023/03/25 03:04:01;;;;;;;33.40;4.93;;;10.00;99.90;;;;;;4990095;28;20653;-77
2023/03/25 03:06:27;;;;;;;44.80;5.50;;;9.90;99.90;;;;;;4973940;28;20203;-76
2023/03/25 03:09:31;;;;;;;31.83;5.13;;;9.70;99.90;;;;;;4990912;28;20190;-77
2023/03/25 03:12:34;;;;;;;36.20;4.77;;;10.00;99.90;;;;;;4977912;28;20187;-76
2023/03/25 03:15:05;;;;;;;32.67;4.73;;;10.00;99.90;;;;;;4991304;28;20262;-76
2023/03/25 03:17:41;;;;;;;42.73;5.07;;;9.90;99.90;;;;;;4991238;28;20174;-76
2023/03/25 03:20:12;;;;;;;32.70;4.07;;;9.90;99.90;;;;;;4990956;28;20187;-76
2023/03/25 03:22:43;;;;;;;37.17;5.40;;;9.90;99.90;;;;;;4989601;28;20171;-78
2023/03/25 03:25:30;;;;;;;38.47;5.17;;;9.80;99.90;;;;;;4990724;28;20187;-81
2023/03/25 03:28:18;;;;;;;28.53;4.33;;;10.00;99.90;;;;;;4990698;28;20221;-80
2023/03/25 03:30:50;;;;;;;31.13;4.70;;;10.00;99.90;;;;;;4990459;28;20549;-79
2023/03/25 03:33:26;;;;;;;41.73;5.13;;;10.00;99.90;;;;;;4989228;28;20179;-80
2023/03/25 03:36:00;;;;;;;40.67;5.17;;;10.00;99.90;;;;;;4986723;28;20296;-78
2023/03/25 03:38:31;;;;;;;31.40;3.63;;;9.90;99.90;;;;;;4988259;28;20194;-78
2023/03/25 03:41:00;;;;;;;22.57;3.80;;;10.00;99.90;;;;;;4987890;28;20265;-76
2023/03/25 03:43:51;;;;;;;40.33;4.77;;;9.90;99.90;;;;;;4986809;28;20224;-76
2023/03/25 03:46:25;;;;;;;32.07;4.90;;;9.90;99.90;;;;;;4985721;28;20229;-76
2023/03/25 03:48:55;;;;;;;42.90;4.93;;;9.90;99.90;;;;;;4982825;28;20193;-75
2023/03/25 03:51:33;;;;;;;45.30;5.47;;;9.90;99.90;;;;;;4990080;28;20175;-75
2023/03/25 03:54:12;;;;;;;28.27;4.03;;;9.80;99.90;;;;;;4987413;28;20183;-76
2023/03/25 03:57:06;;;;;;;28.50;4.37;;;9.80;99.90;;;;;;4989565;28;20553;-76
2023/03/25 04:00:08;;;;;;;37.20;4.93;;;9.90;99.90;;;;;;4970418;28;20207;-76
2023/03/25 04:03:00;;;;;;;29.03;4.80;;;9.80;99.90;;;;;;4988143;28;20265;-78
2023/03/25 04:05:29;;;;;;;33.57;4.10;;;9.80;99.90;;;;;;4989726;28;20191;-78
2023/03/25 04:08:10;;;;;;;27.30;4.77;;;10.10;99.90;;;;;;4990789;28;20258;-77
2023/03/25 04:10:51;;;;;;;39.97;5.27;;;10.00;99.90;;;;;;4986256;28;20178;-77
2023/03/25 04:13:19;;;;;;;36.13;5.33;;;9.80;99.90;;;;;;4991968;28;20175;-78
2023/03/25 04:15:45;;;;;;;36.13;4.10;;;9.90;99.90;;;;;;4991742;28;20207;-79
2023/03/25 04:18:11;;;;;;;31.27;4.63;;;9.80;99.90;;;;;;4992579;28;20254;-78
2023/03/25 04:20:43;;;;;;;32.93;4.10;;;9.80;99.90;;;;;;4990958;28;20175;-79
2023/03/25 04:23:15;;;;;;;30.17;4.50;;;9.80;99.90;;;;;;4990229;28;20685;-79
2023/03/25 04:25:42;;;;;;;40.40;5.30;;;9.70;99.90;;;;;;4989556;28;20184;-77
2023/03/25 04:28:12;;;;;;;33.13;4.17;;;9.70;99.90;;;;;;4989983;28;20179;-78
2023/03/25 04:30:39;;;;;;;48.43;6.27;;;9.80;99.90;;;;;;4984942;28;20187;-77
2023/03/25 04:33:05;;;;;;;31.67;3.30;;;;;;;;;;4993341;28;20650;-77
2023/03/25 04:35:31;;;;;;;29.47;5.00;;;9.70;99.90;;;;;;4992898;28;20707;-78
2023/03/25 04:37:58;;;;;;;35.17;4.07;;;;;;;;;;4994525;28;20183;-81
2023/03/25 04:40:24;;;;;;;26.13;4.43;;;9.70;99.90;;;;;;4994952;28;20190;-76
2023/03/25 04:42:52;;;;;;;23.73;3.80;;;9.70;99.90;;;;;;4993841;28;20219;-74
2023/03/25 04:45:18;;;;;;;32.37;4.37;;;9.70;99.90;;;;;;4993975;28;20181;-72
2023/03/25 04:47:48;;;;;;;16.17;2.83;;;9.70;99.90;;;;;;4993033;28;20676;-76
2023/03/25 04:50:26;;;;;;;24.23;4.07;;;9.80;99.90;;;;;;4993351;28;20183;-71
2023/03/25 04:52:52;;;;;;;34.67;3.83;;;9.80;99.90;;;;;;4993995;28;20183;-86
2023/03/25 04:55:19;;;;;;;20.50;3.10;;;9.70;99.90;;;;;;4994521;28;20183;-84
2023/03/25 04:57:49;;;;;;;28.23;4.00;;;9.80;99.90;;;;;;4994660;28;20187;-84
2023/03/25 05:00:18;;;;;;;32.07;3.60;;;9.80;99.90;;;;;;4994259;28;20194;-84
2023/03/25 05:02:50;;;;;;;23.93;3.77;;;9.70;99.90;;;;;;4976244;28;20180;-80
2023/03/25 05:05:17;;;;;;;36.70;3.77;;;9.70;99.90;;;;;;4983082;28;20175;-83
2023/03/25 05:08:02;;;;;;;26.80;3.90;;;9.60;99.90;;;;;;4994841;28;20205;-85
2023/03/25 05:10:30;;;;;;;31.50;3.63;;;9.70;99.90;;;;;;4977340;28;20211;-85
2023/03/25 05:13:04;;;;;;;34.23;3.77;;;9.90;99.90;;;;;;4995275;28;20190;-86
2023/03/25 05:15:31;;;;;;;30.43;2.50;;;9.70;99.90;;;;;;4994481;28;20225;-83
2023/03/25 05:17:57;;;;;;;21.23;3.20;;;9.70;99.90;;;;;;4994393;28;20176;-80
2023/03/25 05:20:23;;;;;;;35.27;3.70;;;;;;;;;;4994497;28;20729;-81
2023/03/25 05:22:52;;;;;;;34.17;4.00;;;9.60;99.90;;;;;;4994268;28;20278;-84
2023/03/25 05:25:21;;;;;;;31.10;4.97;;;9.70;99.90;;;;;;4993656;28;20183;-80
2023/03/25 05:27:47;;;;;;;23.13;2.87;;;9.60;99.90;;;;;;4993154;28;20180;-82
2023/03/25 05:30:14;;;;;;;33.43;5.20;;;10.30;99.90;;;;;;4993349;28;20294;-82
2023/03/25 05:32:41;;;;;;;28.23;3.33;;;9.60;99.90;;;;;;4989333;28;20182;-84
2023/03/25 05:35:07;;;;;;;25.30;3.70;;;10.10;99.90;;;;;;4993116;28;20256;-78
2023/03/25 05:37:32;;;;;;;20.00;3.23;;;9.40;99.90;;;;;;4992202;28;20183;-79
2023/03/25 05:39:58;;;;;;;19.27;2.20;;;9.30;99.90;;;;;;4992156;28;20190;-78
2023/03/25 05:42:24;;;;;;;19.70;2.93;;;9.30;99.90;;;;;;4991458;28;20187;-78
2023/03/25 05:44:51;;;;;;;32.33;4.47;;;9.20;99.90;;;;;;4992805;28;20229;-85
2023/03/25 05:47:24;;;;;;;21.63;3.13;;;9.10;99.90;;;;;;4976609;28;20293;-84
2023/03/25 05:49:53;;;;;;;28.67;3.43;;;;;;;;;;4993752;28;20183;-88
2023/03/25 05:52:23;;;;;;;34.23;4.10;;;8.90;99.90;;;;;;4993363;28;20198;-86
2023/03/25 05:54:49;;;;;;;23.50;3.40;;;9.00;99.90;;;;;;4984212;28;20594;-88
2023/03/25 05:57:15;;;;;;;26.53;3.27;;;8.70;99.90;;;;;;4994370;28;20176;-86
2023/03/25 05:59:41;;;;;;;39.60;4.00;;;9.10;99.90;;;;;;4979766;28;20183;-88
2023/03/25 06:02:11;;;;;;;33.33;4.80;;;9.00;99.90;;;;;;4992806;28;20222;-86
2023/03/25 06:04:40;;;;;;;31.63;4.10;;;8.80;99.90;;;;;;4992727;28;20243;-87
2023/03/25 06:07:13;;;;;;;26.00;2.80;;;9.00;99.90;;;;;;4992722;28;20167;-87
2023/03/25 06:09:44;;;;;;;37.57;4.47;;;9.40;99.90;;;;;;4992570;28;20665;-86
2023/03/25 06:12:12;;;;;;;27.87;3.93;;;9.60;99.90;;;;;;4992243;28;20182;-86
2023/03/25 06:14:41;;;;;;;35.27;3.70;;;9.10;99.90;;;;;;4992128;28;20182;-79
2023/03/25 06:17:07;;;;;;;27.67;4.50;;;;;;;;;;4991926;28;20186;-80
2023/03/25 06:19:37;;;;;;;30.13;4.03;;;9.10;99.90;;;;;;4984396;28;20267;-78
2023/03/25 06:22:03;;;;;;;26.30;3.57;;;;;;;;;;4992279;28;20187;-80
2023/03/25 06:24:29;;;;;;;23.87;3.97;;;9.20;99.90;;;;;;4992251;28;20297;-77
2023/03/25 06:26:55;;;;;;;25.60;4.23;;;9.20;99.90;;;;;;4991292;28;20705;-77
2023/03/25 06:29:20;;;;;;;31.03;3.97;;;9.30;99.90;;;;;;4991573;28;20191;-82
2023/03/25 06:31:46;;;;;;;36.10;4.60;;;9.30;99.90;;;;;;4991032;28;20271;-82
2023/03/25 06:34:12;;;;;;;34.50;4.63;;;;;;;;;;4973369;28;20317;-82
2023/03/25 06:36:38;;;;;;;24.87;3.37;;;;;;;;;;4976344;28;20515;-83
2023/03/25 06:39:04;;;;;;;29.83;4.13;;;9.40;99.90;;;;;;4990701;28;20190;-83
2023/03/25 06:41:30;;;;;;;30.87;4.37;;;9.90;99.90;;;;;;4991718;28;20271;-84
2023/03/25 06:43:56;;;;;;;42.30;3.40;;;9.80;99.90;;;;;;4991544;28;20219;-84
2023/03/25 06:46:21;;;;;;;32.73;4.23;;;9.50;99.90;;;;;;4990689;28;20187;-85
2023/03/25 06:48:47;;;;;;;32.50;4.20;;;9.40;99.90;;;;;;4989969;28;20187;-84
2023/03/25 06:51:13;;;;;;;37.27;5.23;;;9.50;99.90;;;;;;4991815;28;20179;-82
2023/03/25 06:53:39;;;;;;;32.17;4.57;;;9.40;99.90;;;;;;4990709;28;20195;-84
2023/03/25 06:56:05;;;;;;;34.37;4.53;;;9.60;99.90;;;;;;4990623;28;20171;-83
2023/03/25 06:58:33;;;;;;;23.87;3.83;;;9.50;99.90;;;;;;4992490;28;20190;-88
2023/03/25 07:01:02;;;;;;;20.63;3.33;;;9.50;99.90;;;;;;4994526;28;20217;-87
2023/03/25 07:03:28;;;;;;;30.17;3.87;;;9.50;99.90;;;;;;5001649;28;20217;-89
2023/03/25 07:05:54;;;;;;;29.27;3.87;;;9.60;99.90;;;;;;4997238;28;20642;-87
2023/03/25 07:08:20;;;;;;;28.50;3.83;;;9.70;99.90;;;;;;4993836;28;20207;-88
2023/03/25 07:10:45;;;;;;;28.00;3.97;;;9.80;99.90;;;;;;4994636;28;20258;-86
2023/03/25 07:13:11;;;;;;;29.30;3.63;;;9.70;99.90;;;;;;4995532;28;20695;-87
2023/03/25 07:15:37;;;;;;;34.37;5.27;;;9.80;99.90;;;;;;4994425;28;20186;-86
2023/03/25 07:18:03;;;;;;;29.83;4.30;;;;;;;;;;4994204;28;20171;-84
2023/03/25 07:20:28;;;;;;;34.63;4.87;;;9.90;99.90;;;;;;4975936;28;20626;-84
2023/03/25 07:22:55;;;;;;;22.80;3.87;;;;;;;;;;4992554;28;20201;-75
2023/03/25 07:25:21;;;;;;;26.07;3.93;;;9.90;99.90;;;;;;4991065;28;20199;-76
2023/03/25 07:27:47;;;;;;;24.77;3.53;;;10.00;99.90;;;;;;4974204;28;20179;-76
2023/03/25 07:30:13;;;;;;;29.13;4.13;;;10.00;99.90;;;;;;4991546;28;20167;-75
2023/03/25 07:32:39;;;;;;;32.17;4.63;;;;;;;;;;4991349;28;20278;-75
2023/03/25 07:35:05;;;;;;;26.20;4.17;;;9.90;99.90;;;;;;4989223;28;20222;-75
2023/03/25 07:37:31;;;;;;;26.93;3.93;;;9.90;99.90;;;;;;4975168;28;20184;-75
2023/03/25 07:39:56;;;;;;;31.67;4.40;;;10.00;99.90;;;;;;4990561;28;20610;-77
2023/03/25 07:42:22;;;;;;;27.50;3.17;;;10.00;99.90;;;;;;4991639;28;20175;-80
2023/03/25 07:44:47;;;;;;;37.90;5.00;;;9.90;99.90;;;;;;4987436;28;20339;-75
2023/03/25 07:47:13;;;;;;;27.40;4.00;;;10.00;99.90;;;;;;4988772;28;20614;-75
2023/03/25 07:49:43;;;;;;;38.33;4.37;;;10.10;99.90;;;;;;4991432;28;20186;-75
2023/03/25 07:52:08;;;;;;;34.40;4.73;;;10.20;99.90;;;;;;4990005;28;20159;-80
2023/03/25 07:54:34;;;;;;;47.17;4.70;;;10.30;99.90;;;;;;4991405;28;20187;-75
2023/03/25 07:57:00;;;;;;;32.20;4.37;;;10.30;99.90;;;;;;4991239;28;20650;-78
2023/03/25 07:59:26;;;;;;;33.60;4.27;;;10.60;99.90;;;;;;4990712;28;20187;-74
2023/03/25 08:01:52;;;;;;;28.90;4.50;;;10.50;99.90;;;;;;4991062;28;20223;-75
2023/03/25 08:04:17;;;;;;;33.83;4.47;;;10.60;99.90;;;;;;4990352;28;20218;-76
2023/03/25 08:06:44;;;;;;;29.23;3.97;;;;;;;;;;4989550;28;20653;-75
2023/03/25 08:09:10;;;;;;;28.73;4.50;;;;;;;;;;4988426;28;20270;-73
2023/03/25 08:11:36;;;;;;;23.37;3.50;;;10.70;99.90;;;;;;4990409;28;20674;-75
2023/03/25 08:14:02;;;;;;;36.57;5.03;;;10.80;99.90;;;;;;4994050;28;20189;-76
2023/03/25 08:16:27;;;;;;;33.77;4.83;;;10.90;99.90;;;;;;4994669;28;20253;-78
2023/03/25 08:18:53;;;;;;;27.87;4.27;;;11.10;99.90;;;;;;4976548;28;20214;-78
2023/03/25 08:21:26;;;;;;;18.97;3.67;;;11.00;99.90;;;;;;4994878;28;20654;-74
2023/03/25 08:23:57;;;;;;;20.63;2.73;;;11.10;99.90;;;;;;4993881;28;20211;-75
2023/03/25 08:26:24;;;;;;;26.80;3.33;;;11.30;99.90;;;;;;4994610;28;20225;-75
2023/03/25 08:28:50;;;;;;;22.57;2.97;;;11.30;99.90;;;;;;4994854;28;20646;-75
2023/03/25 08:31:15;;;;;;;24.10;4.07;;;11.40;99.90;;;;;;4994174;28;20253;-75
2023/03/25 08:33:41;;;;;;;26.93;3.53;;;11.50;99.90;;;;;;4994696;28;20187;-75
2023/03/25 08:36:12;;;;;;;27.20;3.97;;;11.50;99.90;;;;;;4994491;28;20222;-76
2023/03/25 08:38:39;;;;;;;33.60;4.37;;;11.60;99.90;;;;;;4993652;28;20185;-75
2023/03/25 08:41:05;;;;;;;37.37;3.60;;;13.30;99.90;;;;;;4994297;28;20650;-73
2023/03/25 08:43:30;;;;;;;22.67;3.90;;;13.10;99.90;;;;;;4981829;28;20217;-74
2023/03/25 08:45:56;;;;;;;31.03;3.97;;;;;;;;;;4994176;28;20550;-74
2023/03/25 08:48:23;;;;;;;30.87;3.80;;;13.60;99.90;;;;;;4992426;28;20211;-74
2023/03/25 08:50:49;;;;;;;27.33;3.87;;;14.30;99.90;;;;;;4991975;28;20270;-75
2023/03/25 08:53:14;;;;;;;24.43;4.93;;;13.90;99.90;;;;;;4993500;28;20730;-74
2023/03/25 08:55:40;;;;;;;23.50;3.23;;;14.70;99.90;;;;;;4994346;28;20187;-74
2023/03/25 08:58:07;;;;;;;32.45;4.68;;;14.50;99.90;;;;;;4993155;28;20199;-74
2023/03/25 09:00:34;;;;;;;21.90;3.83;;;14.90;99.90;;;;;;4994258;28;20194;-72
2023/03/25 09:03:01;;;;;;;31.20;4.43;;;14.10;99.90;;;;;;4994152;28;20206;-74
2023/03/25 09:05:27;;;;;;;28.08;4.68;;;13.40;99.90;;;;;;4985785;28;20190;-72
2023/03/25 09:07:52;;;;;;;30.08;4.70;;;14.00;99.90;;;;;;4973304;28;20172;-72
2023/03/25 09:10:18;;;;;;;28.00;3.88;;;13.90;99.90;;;;;;4972919;28;20217;-73
2023/03/25 09:12:44;;;;;;;21.77;3.00;;;13.50;99.90;;;;;;4974006;28;20325;-72
2023/03/25 09:15:11;;;;;;;24.15;3.67;;;12.70;99.90;;;;;;4985526;28;20332;-72
2023/03/25 09:17:38;;;;;;;31.53;4.43;;;13.40;99.90;;;;;;4993423;28;20198;-71
2023/03/25 09:20:07;;;;;;;30.67;4.63;;;14.50;99.90;;;;;;4993169;28;20168;-73
2023/03/25 09:22:34;;;;;;;25.60;3.77;;;13.50;99.90;;;;;;4992959;28;20171;-73
2023/03/25 09:24:59;;;;;;;30.35;4.95;;;12.80;99.90;;;;;;4993338;28;20246;-72
2023/03/25 09:27:25;;;;;;;28.63;3.33;;;12.50;99.90;;;;;;4993117;28;20253;-72
2023/03/25 09:29:51;;;;;;;25.17;4.50;;;13.40;99.90;;;;;;4993152;28;20175;-73
2023/03/25 09:32:17;;;;;;;25.10;3.47;;;14.10;99.90;;;;;;4991255;28;20183;-71
2023/03/25 09:34:43;;;;;;;33.60;3.60;;;14.00;99.90;;;;;;4991751;28;20699;-71
2023/03/25 09:37:10;;;;;;;29.65;4.15;;;13.60;99.90;;;;;;4992607;28;20314;-69
2023/03/25 09:39:36;;;;;;;28.02;4.53;;;14.40;99.90;;;;;;4992812;28;20229;-69
2023/03/25 09:42:37;;;;;;;35.28;4.38;;;14.50;99.90;;;;;;4992178;28;20183;-70
2023/03/25 09:45:06;;;;;;;18.42;3.03;;;15.70;99.90;;;;;;4992592;28;20218;-69
2023/03/25 09:47:33;;;;;;;23.13;3.70;;;15.60;99.90;;;;;;4991313;28;20180;-69
2023/03/25 09:50:09;;;;;;;21.05;4.45;;;15.70;99.90;;;;;;4991777;28;20188;-70
2023/03/25 09:53:10;;;;;;;28.60;3.80;;;16.30;99.90;;;;;;4992179;28;20170;-75
2023/03/25 09:55:40;;;;;;;26.40;4.35;;;15.80;99.90;;;;;;4973208;28;20176;-77
2023/03/25 09:58:41;;;;;;;22.23;3.67;;;16.90;99.90;;;;;;4987278;28;20215;-75
2023/03/25 10:01:44;;;;;;;23.52;4.45;;;14.90;99.90;;;;;;4984618;28;20280;-68
2023/03/25 10:04:45;;;;;;;27.90;3.40;;;15.20;99.90;;;;;;4992179;28;20262;-69
2023/03/25 10:07:31;;;;;;;20.60;3.70;;;13.50;99.90;;;;;;4992508;28;20639;-70
2023/03/25 10:10:22;;;;;;;17.20;4.40;;;16.90;99.90;;;;;;4991188;28;20262;-70
2023/03/25 10:13:11;;;;;;;28.95;4.60;;;16.50;99.90;;;;;;4968792;28;20191;-70
2023/03/25 10:15:43;;;;;;;14.43;3.22;;;16.00;99.90;;;;;;4974530;28;20179;-68
2023/03/25 10:18:40;;;;;;;31.42;3.92;;;15.90;99.90;;;;;;4991867;28;20215;-69
2023/03/25 10:21:14;;;;;;;26.25;3.85;;;14.50;99.90;;;;;;4992183;28;20171;-69
2023/03/25 10:23:47;;;;;;;20.52;3.30;;;13.50;99.90;;;;;;4992151;28;20218;-69
2023/03/25 10:26:27;;;;;;;29.65;3.47;;;13.30;99.90;;;;;;4992049;28;20190;-69
2023/03/25 10:29:03;;;;;;;23.35;3.70;;;13.00;99.90;;;;;;4990620;28;20180;-69
2023/03/25 10:31:34;;;;;;;26.75;3.70;;;12.90;99.90;;;;;;4991872;28;20319;-69
2023/03/25 10:34:05;;;;;;;24.00;3.70;;;12.70;99.90;;;;;;4991849;28;20194;-69
2023/03/25 10:36:37;;;;;;;37.50;5.53;;;12.70;99.90;;;;;;4971082;28;20266;-68
2023/03/25 10:39:13;;;;;;;30.33;4.07;;;12.30;99.90;;;;;;4972853;28;20172;-68
2023/03/25 10:41:42;;;;;;;31.30;4.27;;;12.80;99.90;;;;;;4976707;28;20179;-69
2023/03/25 10:44:10;;;;;;;33.80;4.33;;;12.70;99.90;;;;;;4991262;28;20237;-69
2023/03/25 10:46:53;;;;;;;39.00;4.83;;;12.70;99.90;;;;;;4990761;28;20308;-69
2023/03/25 10:49:26;;;;;;;26.47;4.40;;;12.90;99.90;;;;;;4991284;28;20174;-68
2023/03/25 10:51:53;;;;;;;32.10;4.80;;;14.70;99.90;;;;;;4991904;28;20190;-70
2023/03/25 10:54:22;;;;;;;31.40;4.72;;;14.90;99.90;;;;;;4991026;28;20187;-69
2023/03/25 10:56:51;;;;;;;25.77;3.78;;;15.40;99.90;;;;;;4989007;28;20185;-69
2023/03/25 10:59:46;;;;;;;22.67;3.63;;;16.40;99.90;;;;;;4988967;28;20214;-70
2023/03/25 11:02:21;;;;;;;22.08;3.53;;;16.70;99.90;;;;;;4984294;28;20172;-69
2023/03/25 11:04:50;;;;;;;19.88;3.15;;;17.70;99.90;;;;;;4984660;28;20559;-69
2023/03/25 11:07:26;;;;;;;24.13;4.35;;;18.30;99.90;;;;;;4991681;28;20185;-69
2023/03/25 11:09:51;;;;;;;14.70;3.25;;;19.60;99.90;;;;;;4972656;28;20647;-69
2023/03/25 11:12:21;;;;;;;20.90;3.55;;;19.10;99.90;;;;;;4987128;28;20214;-69
2023/03/25 11:14:55;;;;;;;23.05;3.85;;;18.60;99.90;;;;;;4990133;28;20704;-69
2023/03/25 11:17:24;;;;;;;19.77;3.88;;;18.90;99.90;;;;;;4991038;28;20197;-69
2023/03/25 11:20:04;;;;;;;20.73;3.90;;;19.30;99.90;;;;;;4991234;28;20185;-69
2023/03/25 11:22:35;;;;;;;16.90;3.53;;;19.20;99.90;;;;;;4990801;28;20178;-69
2023/03/25 11:25:15;;;;;;;15.70;3.60;;;19.00;99.90;;;;;;4990683;28;20221;-69
2023/03/25 11:27:51;;;;;;;13.23;3.25;;;19.00;99.90;;;;;;4983811;28;20159;-69
2023/03/25 11:30:21;;;;;;;13.55;2.90;;;19.20;99.90;;;;;;4988273;28;20187;-68
2023/03/25 11:33:16;;;;;;;20.13;3.15;;;18.00;99.90;;;;;;4990584;28;20241;-68
2023/03/25 11:35:43;;;;;;;14.43;2.72;;;17.80;99.90;;;;;;4970496;28;20227;-68
2023/03/25 11:38:19;;;;;;;16.00;2.83;;;17.80;99.90;;;;;;4988902;28;20201;-68
2023/03/25 11:40:56;;;;;;;17.58;3.00;;;18.10;99.90;;;;;;4989693;28;20205;-69
2023/03/25 11:43:25;;;;;;;16.40;3.03;;;19.00;99.90;;;;;;4990899;28;20261;-68
2023/03/25 11:45:51;;;;;;;16.25;3.08;;;18.90;99.90;;;;;;4990965;28;20171;-68
2023/03/25 11:48:17;;;;;;;16.08;3.22;;;18.20;99.90;;;;;;4972663;28;20179;-69
2023/03/25 11:50:54;;;;;;;15.95;2.53;;;19.00;99.90;;;;;;4989325;28;20298;-69
2023/03/25 11:53:21;;;;;;;11.10;2.58;;;19.10;99.90;;;;;;4988875;28;20707;-68
2023/03/25 11:55:50;;;;;;;16.05;3.00;;;18.70;99.90;;;;;;4989486;28;20538;-68
2023/03/25 11:58:20;;;;;;;10.75;2.00;;;19.40;99.90;;;;;;4989481;28;20172;-69
2023/03/25 12:00:52;;;;;;;14.10;2.30;;;19.00;99.90;;;;;;4976331;28;20834;-68
2023/03/25 12:03:25;;;;;;;12.70;2.40;;;18.70;99.90;;;;;;4990413;28;20214;-68
2023/03/25 12:06:00;;;;;;;18.75;3.65;;;18.60;99.90;;;;;;4991474;28;20650;-68
2023/03/25 12:08:29;;;;;;;15.23;3.67;;;18.40;99.90;;;;;;4991274;28;20653;-69
2023/03/25 12:11:07;;;;;;;21.13;3.33;;;19.00;99.90;;;;;;4994333;28;20175;-69
2023/03/25 12:13:50;;;;;;;15.55;3.05;;;19.60;99.90;;;;;;4991614;28;20202;-69
2023/03/25 12:16:40;;;;;;;20.05;3.20;;;20.40;99.90;;;;;;4991399;28;20171;-69
2023/03/25 12:19:12;;;;;;;14.18;3.03;;;19.20;99.90;;;;;;4990571;28;20669;-69
2023/03/25 12:21:44;;;;;;;16.90;3.72;;;19.20;99.90;;;;;;4990358;28;20182;-69
2023/03/25 12:24:15;;;;;;;20.65;3.45;;;19.30;99.90;;;;;;4991074;28;20258;-68
2023/03/25 12:26:43;;;;;;;17.65;3.65;;;19.00;99.90;;;;;;4991271;28;20172;-69
2023/03/25 12:29:26;;;;;;;18.80;3.47;;;18.40;99.90;;;;;;4989938;28;20399;-70
2023/03/25 12:32:26;;;;;;;23.17;4.20;;;18.40;99.90;;;;;;4990341;28;20183;-67
2023/03/25 12:35:10;;;;;;;17.73;3.60;;;17.20;99.90;;;;;;4988921;28;20234;-67
2023/03/25 12:37:48;;;;;;;18.40;3.35;;;16.70;99.90;;;;;;4989201;28;20176;-67
2023/03/25 12:40:41;;;;;;;19.17;3.97;;;17.00;99.90;;;;;;4990294;28;20188;-68
2023/03/25 12:43:21;;;;;;;18.13;3.70;;;16.60;99.90;;;;;;4990835;28;20333;-67
2023/03/25 12:46:17;;;;;;;19.85;3.50;;;16.70;99.90;;;;;;4985678;28;20539;-69
2023/03/25 12:48:55;;;;;;;14.85;2.97;;;17.90;99.90;;;;;;4983309;28;20175;-69
2023/03/25 12:51:23;;;;;;;16.08;3.33;;;18.10;99.90;;;;;;4963443;28;20176;-69
2023/03/25 12:54:18;;;;;;;26.10;3.45;;;17.50;99.90;;;;;;4981882;28;20202;-69
2023/03/25 12:56:59;;;;;;;18.75;2.70;;;17.10;99.90;;;;;;4993338;28;20168;-69
2023/03/25 12:59:36;;;;;;;18.33;3.22;;;17.50;99.90;;;;;;4980593;28;20662;-70
2023/03/25 13:02:46;;;;;;;12.93;2.55;;;18.10;99.90;;;;;;4974388;28;20270;-69
2023/03/25 13:05:46;;;;;;;13.05;2.22;;;18.60;99.90;;;;;;4973934;28;20188;-70
2023/03/25 13:08:17;;;;;;;20.30;2.90;;;18.70;99.90;;;;;;4972860;28;20176;-69